createdAt,value
2022-10-14T00:01:48.482Z,26.67
2022-10-14T00:04:50.217Z,30.00
2022-10-14T00:07:51.904Z,28.57
2022-10-14T00:10:53.581Z,35.37
2022-10-14T00:13:57.710Z,34.00
2022-10-14T00:16:59.397Z,33.03
2022-10-14T00:20:01.081Z,26.23
2022-10-14T00:23:02.839Z,27.10
2022-10-14T00:26:04.925Z,29.13
2022-10-14T00:29:13.289Z,28.67
2022-10-14T00:32:15.712Z,35.37
2022-10-14T00:35:17.913Z,28.17
2022-10-14T00:38:19.555Z,28.43
2022-10-14T00:41:32.981Z,29.93
2022-10-14T00:44:34.789Z,25.60
2022-10-14T00:47:36.533Z,31.40
2022-10-14T00:50:45.488Z,34.60
2022-10-14T00:53:47.599Z,32.03
2022-10-14T00:56:50.157Z,33.73
2022-10-14T00:59:54.391Z,33.23
2022-10-14T01:02:57.046Z,31.90
2022-10-14T01:06:17.981Z,35.53
2022-10-14T01:09:40.410Z,34.43
2022-10-14T01:12:59.927Z,30.73
2022-10-14T01:16:23.173Z,35.00
2022-10-14T01:19:52.493Z,32.03
2022-10-14T01:23:18.956Z,32.17
2022-10-14T01:26:45.856Z,32.33
2022-10-14T01:30:06.185Z,29.40
2022-10-14T01:33:22.254Z,30.00
2022-10-14T01:36:32.225Z,30.10
2022-10-14T01:39:42.538Z,29.50
2022-10-14T01:42:46.006Z,37.00
2022-10-14T01:45:49.877Z,30.13
2022-10-14T01:48:56.239Z,31.40
2022-10-14T01:52:03.883Z,28.90
2022-10-14T01:55:11.810Z,26.70
2022-10-14T01:58:16.331Z,32.37
2022-10-14T02:01:19.023Z,28.93
2022-10-14T02:04:23.816Z,31.93
2022-10-14T02:07:54.944Z,26.97
2022-10-14T02:11:09.429Z,32.20
2022-10-14T02:14:38.459Z,26.63
2022-10-14T02:17:57.973Z,26.33
2022-10-14T02:20:59.615Z,28.87
2022-10-14T02:24:09.590Z,31.43
2022-10-14T02:27:15.008Z,31.80
2022-10-14T02:30:19.858Z,29.33
2022-10-14T02:33:30.928Z,30.80
2022-10-14T02:36:35.444Z,30.43
2022-10-14T02:39:44.446Z,28.40
2022-10-14T02:42:46.320Z,29.17
2022-10-14T02:45:48.016Z,31.07
2022-10-14T02:48:50.510Z,30.30
2022-10-14T02:51:52.453Z,28.03
2022-10-14T02:54:54.149Z,27.40
2022-10-14T02:57:57.207Z,31.77
2022-10-14T03:01:01.569Z,29.03
2022-10-14T03:04:04.483Z,33.10
2022-10-14T03:07:06.302Z,27.63
2022-10-14T03:10:12.378Z,29.60
2022-10-14T03:13:14.765Z,28.90
2022-10-14T03:16:20.353Z,33.90
2022-10-14T03:19:23.170Z,34.30
2022-10-14T03:22:28.384Z,38.13
2022-10-14T03:25:31.761Z,32.80
2022-10-14T03:28:43.864Z,35.47
2022-10-14T03:31:54.252Z,38.90
2022-10-14T03:35:03.881Z,33.30
2022-10-14T03:38:06.529Z,35.93
2022-10-14T03:41:09.733Z,36.90
2022-10-14T03:44:11.480Z,39.57
2022-10-14T03:47:18.402Z,35.67
2022-10-14T03:50:20.931Z,32.33
2022-10-14T03:53:27.379Z,32.07
2022-10-14T03:56:29.924Z,28.43
2022-10-14T03:59:32.576Z,36.47
2022-10-14T04:02:35.508Z,33.60
2022-10-14T04:05:37.985Z,33.80
2022-10-14T04:08:45.832Z,37.53
2022-10-14T04:12:00.415Z,35.23
2022-10-14T04:15:18.105Z,33.93
2022-10-14T04:18:38.109Z,35.23
2022-10-14T04:21:39.924Z,32.77
2022-10-14T04:24:44.164Z,36.77
2022-10-14T04:27:46.097Z,34.07
2022-10-14T04:30:48.264Z,34.70
2022-10-14T04:33:59.546Z,32.10
2022-10-14T04:37:06.659Z,37.73
2022-10-14T04:40:20.461Z,32.70
2022-10-14T04:43:22.757Z,39.60
2022-10-14T04:46:24.787Z,31.50
2022-10-14T04:49:26.733Z,37.13
2022-10-14T04:52:38.012Z,31.57
2022-10-14T04:55:46.649Z,31.83
2022-10-14T04:58:48.352Z,40.17
2022-10-14T05:01:50.381Z,38.07
2022-10-14T05:04:52.158Z,33.73
2022-10-14T05:07:53.937Z,34.13
2022-10-14T05:11:00.162Z,35.63
2022-10-14T05:14:19.019Z,42.03
2022-10-14T05:17:23.858Z,43.63
2022-10-14T05:20:25.608Z,38.23
2022-10-14T05:23:30.293Z,43.63
2022-10-14T05:26:33.639Z,39.70
2022-10-14T05:29:38.752Z,34.17
2022-10-14T05:32:41.029Z,37.70
2022-10-14T05:35:58.789Z,36.47
2022-10-14T05:39:02.376Z,40.57
2022-10-14T05:42:09.200Z,33.63
2022-10-14T05:45:11.555Z,30.90
2022-10-14T05:48:19.932Z,33.40
2022-10-14T05:51:23.794Z,36.10
2022-10-14T05:54:31.399Z,38.47
2022-10-14T05:57:33.984Z,31.43
2022-10-14T06:00:35.929Z,31.97
2022-10-14T06:03:43.299Z,33.70
2022-10-14T06:06:45.552Z,33.20
2022-10-14T06:09:47.260Z,32.33
2022-10-14T06:12:49.426Z,31.97
2022-10-14T06:15:51.317Z,29.50
2022-10-14T06:18:54.618Z,32.30
2022-10-14T06:21:57.345Z,33.63
2022-10-14T06:25:03.294Z,27.10
2022-10-14T06:28:06.195Z,30.47
2022-10-14T06:31:07.868Z,26.60
2022-10-14T06:34:09.721Z,27.87
2022-10-14T06:37:11.395Z,34.50
2022-10-14T06:40:13.160Z,29.40
2022-10-14T06:43:14.809Z,30.33
2022-10-14T06:46:16.606Z,26.63
2022-10-14T06:49:18.312Z,26.07
2022-10-14T06:52:20.206Z,25.20
2022-10-14T06:55:22.015Z,25.10
2022-10-14T06:58:23.688Z,29.93
2022-10-14T07:01:25.548Z,24.73
2022-10-14T07:04:27.229Z,23.93
2022-10-14T07:07:28.876Z,25.10
2022-10-14T07:10:30.554Z,20.00
2022-10-14T07:13:34.150Z,24.20
2022-10-14T07:16:35.920Z,21.33
2022-10-14T07:19:37.608Z,23.20
2022-10-14T07:22:39.340Z,25.90
2022-10-14T07:25:41.097Z,21.17
2022-10-14T07:28:42.857Z,19.13
2022-10-14T07:31:44.585Z,16.57
2022-10-14T07:34:46.290Z,19.17
2022-10-14T07:37:48.971Z,18.70
2022-10-14T07:41:02.464Z,17.67
2022-10-14T07:44:08.414Z,12.13
2022-10-14T07:47:10.046Z,15.23
2022-10-14T07:50:11.844Z,16.53
2022-10-14T07:53:13.484Z,15.73
2022-10-14T07:56:15.347Z,14.17
2022-10-14T07:59:18.895Z,13.37
2022-10-14T08:02:20.563Z,11.60
2022-10-14T08:05:38.781Z,11.57
2022-10-14T08:08:42.424Z,11.47
2022-10-14T08:11:45.155Z,11.33
2022-10-14T08:14:46.841Z,13.57
2022-10-14T08:17:48.476Z,16.37
2022-10-14T08:20:50.484Z,10.03
2022-10-14T08:23:53.104Z,11.57
2022-10-14T08:26:57.922Z,10.20
2022-10-14T08:29:59.770Z,9.80
2022-10-14T08:33:01.509Z,9.77
2022-10-14T08:36:03.351Z,16.27
2022-10-14T08:39:05.755Z,10.97
2022-10-14T08:42:34.880Z,12.00
2022-10-14T08:45:42.680Z,11.93
2022-10-14T08:48:45.336Z,10.90
2022-10-14T08:51:53.421Z,9.40
2022-10-14T08:55:00.088Z,9.57
2022-10-14T08:58:11.593Z,12.77
2022-10-14T09:01:29.475Z,9.50
2022-10-14T09:04:35.745Z,8.27
2022-10-14T09:07:37.672Z,8.10
2022-10-14T09:10:42.228Z,9.50
2022-10-14T09:13:47.613Z,7.90
2022-10-14T09:16:54.303Z,12.10
2022-10-14T09:20:13.313Z,10.63
2022-10-14T09:23:19.213Z,6.77
2022-10-14T09:26:20.961Z,6.93
2022-10-14T09:29:37.344Z,6.40
2022-10-14T09:32:44.444Z,6.93
2022-10-14T09:35:47.412Z,8.63
2022-10-14T09:38:52.617Z,5.17
2022-10-14T09:41:55.086Z,7.37
2022-10-14T09:45:14.159Z,7.77
2022-10-14T09:48:37.908Z,5.13
2022-10-14T09:51:43.133Z,6.03
2022-10-14T09:54:44.969Z,8.47
2022-10-14T09:57:47.014Z,9.17
2022-10-14T10:00:57.184Z,7.57
2022-10-14T10:04:30.964Z,5.63
2022-10-14T10:07:35.020Z,6.57
2022-10-14T10:10:37.131Z,4.93
2022-10-14T10:13:47.127Z,9.57
2022-10-14T10:20:18.080Z,4.10
2022-10-14T10:23:26.903Z,4.33
2022-10-14T10:26:32.788Z,4.60
2022-10-14T10:29:35.228Z,5.37
2022-10-14T10:32:44.721Z,9.83
2022-10-14T10:39:30.079Z,3.47
2022-10-14T10:42:48.660Z,3.17
2022-10-14T10:46:15.117Z,3.30
2022-10-14T10:49:41.348Z,2.87
2022-10-14T10:53:05.307Z,3.47
2022-10-14T10:56:13.373Z,2.27
2022-10-14T10:59:33.361Z,6.10
2022-10-14T11:02:44.103Z,3.77
2022-10-14T11:05:48.765Z,3.67
2022-10-14T11:09:21.492Z,1.93
2022-10-14T11:12:56.626Z,4.30
2022-10-14T11:16:27.441Z,4.43
2022-10-14T11:19:54.025Z,2.53
2022-10-14T11:23:34.742Z,3.50
2022-10-14T11:27:23.899Z,4.43
2022-10-14T11:30:59.265Z,4.47
2022-10-14T11:34:25.080Z,3.17
2022-10-14T11:38:00.649Z,3.20
2022-10-14T11:41:27.837Z,1.93
2022-10-14T11:44:40.455Z,4.57
2022-10-14T11:47:45.620Z,2.70
2022-10-14T11:50:53.197Z,2.33
2022-10-14T11:54:08.373Z,2.20
2022-10-14T11:57:25.472Z,1.87
2022-10-14T12:00:30.974Z,6.10
2022-10-14T12:04:02.765Z,5.60
2022-10-14T12:07:12.455Z,2.43
2022-10-14T12:10:27.445Z,3.37
2022-10-14T12:13:42.895Z,1.50
2022-10-14T12:16:47.398Z,2.60
2022-10-14T12:19:51.093Z,2.23
2022-10-14T12:22:54.608Z,4.43
2022-10-14T12:26:13.307Z,3.67
2022-10-14T12:29:19.348Z,1.27
2022-10-14T12:32:25.080Z,6.00
2022-10-14T12:35:53.463Z,2.00
2022-10-14T12:39:22.413Z,1.87
2022-10-14T12:42:26.188Z,2.30
2022-10-14T12:45:31.503Z,4.83
2022-10-14T12:48:38.857Z,2.67
2022-10-14T12:51:56.682Z,3.03
2022-10-14T12:55:00.813Z,3.60
2022-10-14T12:58:04.823Z,4.80
2022-10-14T13:01:17.335Z,3.43
2022-10-14T13:04:20.497Z,4.53
2022-10-14T13:07:46.598Z,3.73
2022-10-14T13:10:54.990Z,3.77
2022-10-14T13:14:01.196Z,7.63
2022-10-14T13:17:24.000Z,5.70
2022-10-14T13:20:34.902Z,2.80
2022-10-14T13:23:49.346Z,3.17
2022-10-14T13:26:53.992Z,6.00
2022-10-14T13:30:08.613Z,4.83
2022-10-14T13:33:32.663Z,5.63
2022-10-14T13:36:42.283Z,10.13
2022-10-14T13:39:43.962Z,8.20
2022-10-14T13:42:52.106Z,8.87
2022-10-14T13:45:58.823Z,8.97
2022-10-14T13:49:03.855Z,12.57
2022-10-14T13:52:10.549Z,8.53
2022-10-14T13:55:18.460Z,7.63
2022-10-14T13:58:24.668Z,6.33
2022-10-14T14:01:39.062Z,6.40
2022-10-14T14:04:42.028Z,7.97
2022-10-14T14:08:30.185Z,6.37
2022-10-14T14:11:22.513Z,6.17
2022-10-14T14:14:34.593Z,6.27
2022-10-14T14:17:36.256Z,8.77
2022-10-14T14:20:38.379Z,7.80
2022-10-14T14:23:53.997Z,6.33
2022-10-14T14:26:56.437Z,6.43
2022-10-14T14:29:59.270Z,8.17
2022-10-14T14:33:04.213Z,5.97
2022-10-14T14:36:18.186Z,8.30
2022-10-14T14:39:30.104Z,10.47
2022-10-14T14:42:40.559Z,7.37
2022-10-14T14:45:44.749Z,5.97
2022-10-14T14:48:54.500Z,11.33
2022-10-14T14:51:57.309Z,6.70
2022-10-14T14:54:58.970Z,5.47
2022-10-14T14:58:02.139Z,5.90
2022-10-14T15:01:06.593Z,10.97
2022-10-14T15:04:17.629Z,8.07
2022-10-14T15:07:21.882Z,8.40
2022-10-14T15:10:30.347Z,8.83
2022-10-14T15:13:37.897Z,11.37
2022-10-14T15:16:42.130Z,7.33
2022-10-14T15:19:44.742Z,9.63
2022-10-14T15:22:47.164Z,9.20
2022-10-14T15:25:58.107Z,10.43
2022-10-14T15:29:14.529Z,7.90
2022-10-14T15:32:17.836Z,13.17
2022-10-14T15:35:21.651Z,10.87
2022-10-14T15:38:24.191Z,12.13
2022-10-14T15:41:26.022Z,13.40
2022-10-14T15:44:27.739Z,16.00
2022-10-14T15:47:29.655Z,9.87
2022-10-14T15:50:31.504Z,10.07
2022-10-14T15:53:33.718Z,10.30
2022-10-14T15:56:36.108Z,11.07
2022-10-14T15:59:38.193Z,11.00
2022-10-14T16:02:43.261Z,11.40
2022-10-14T16:05:45.967Z,8.67
2022-10-14T16:08:49.086Z,10.93
2022-10-14T16:11:57.083Z,12.63
2022-10-14T16:14:59.045Z,10.00
2022-10-14T16:18:02.120Z,9.43
2022-10-14T16:21:04.116Z,9.47
2022-10-14T16:24:07.374Z,10.23
2022-10-14T16:27:09.113Z,9.00
2022-10-14T16:30:11.275Z,14.47
2022-10-14T16:33:13.135Z,13.13
2022-10-14T16:36:15.319Z,13.90
2022-10-14T16:39:19.124Z,20.77
2022-10-14T16:42:20.783Z,13.77
2022-10-14T16:45:22.515Z,12.63
2022-10-14T16:48:24.175Z,11.83
2022-10-14T16:51:25.878Z,10.33
2022-10-14T16:54:27.553Z,11.33
2022-10-14T16:57:29.398Z,11.03
2022-10-14T17:00:31.154Z,16.57
2022-10-14T17:03:32.781Z,17.87
2022-10-14T17:06:34.444Z,10.13
2022-10-14T17:09:36.880Z,13.10
2022-10-14T17:12:39.349Z,11.70
2022-10-14T17:15:40.992Z,9.97
2022-10-14T17:18:43.014Z,11.20
2022-10-14T17:21:49.511Z,10.60
2022-10-14T17:24:51.274Z,11.17
2022-10-14T17:27:53.015Z,17.83
2022-10-14T17:30:54.659Z,12.43
2022-10-14T17:33:56.474Z,14.60
2022-10-14T17:36:59.614Z,15.23
2022-10-14T17:40:01.954Z,14.37
2022-10-14T17:43:03.604Z,15.17
2022-10-14T17:49:15.021Z,15.77
2022-10-14T17:52:16.992Z,19.27
2022-10-14T17:58:25.202Z,14.97
2022-10-14T18:01:37.239Z,14.97
2022-10-14T18:04:50.174Z,18.70
2022-10-14T18:07:52.091Z,17.67
2022-10-14T18:10:53.734Z,16.43
2022-10-14T18:13:59.154Z,25.13
2022-10-14T18:17:00.812Z,22.37
2022-10-14T18:20:05.300Z,20.27
2022-10-14T18:23:07.472Z,19.10
2022-10-14T18:26:13.482Z,18.03
2022-10-14T18:29:15.427Z,14.77
2022-10-14T18:32:17.851Z,20.43
2022-10-14T18:35:19.503Z,20.00
2022-10-14T18:38:21.131Z,18.67
2022-10-14T18:41:23.304Z,21.37
2022-10-14T18:44:25.000Z,25.67
2022-10-14T18:47:28.266Z,24.00
2022-10-14T18:50:29.901Z,26.33
2022-10-14T18:53:33.008Z,18.90
2022-10-14T18:56:38.602Z,25.30
2022-10-14T18:59:40.293Z,19.97
2022-10-14T19:02:41.948Z,20.27
2022-10-14T19:05:44.109Z,18.77
2022-10-14T19:08:46.207Z,20.13
2022-10-14T19:11:51.977Z,22.83
2022-10-14T19:14:53.974Z,20.00
2022-10-14T19:17:56.593Z,20.93
2022-10-14T19:21:05.276Z,21.70
2022-10-14T19:24:10.629Z,26.23
2022-10-14T19:27:12.355Z,19.33
2022-10-14T19:30:14.149Z,18.60
2022-10-14T19:33:15.860Z,19.67
2022-10-14T19:36:18.673Z,19.07
2022-10-14T19:39:20.344Z,20.90
2022-10-14T19:42:22.049Z,20.07
2022-10-14T19:45:23.719Z,19.33
2022-10-14T19:48:26.242Z,18.77
2022-10-14T19:51:28.159Z,20.97
2022-10-14T19:54:29.858Z,21.80
2022-10-14T19:57:31.587Z,23.03
2022-10-14T20:00:34.885Z,22.83
2022-10-14T20:03:36.691Z,22.97
2022-10-14T20:06:39.921Z,19.17
2022-10-14T20:09:41.587Z,21.67
2022-10-14T20:12:43.264Z,24.43
2022-10-14T20:15:44.967Z,19.30
2022-10-14T20:18:46.641Z,21.23
2022-10-14T20:21:48.299Z,21.23
2022-10-14T20:24:50.188Z,20.90
2022-10-14T20:27:51.872Z,21.17
2022-10-14T20:30:54.181Z,23.80
2022-10-14T20:33:56.924Z,24.40
2022-10-14T20:36:58.645Z,24.23
2022-10-14T20:40:00.391Z,20.77
2022-10-14T20:43:03.256Z,22.10
2022-10-14T20:46:05.025Z,20.40
2022-10-14T20:49:06.810Z,20.93
2022-10-14T20:52:09.819Z,24.73
2022-10-14T20:55:11.683Z,16.70
2022-10-14T20:58:13.352Z,20.13
2022-10-14T21:01:17.144Z,19.87
2022-10-14T21:04:18.855Z,19.47
2022-10-14T21:07:21.597Z,20.90
2022-10-14T21:10:24.324Z,21.80
2022-10-14T21:13:26.306Z,19.43
2022-10-14T21:16:33.245Z,21.70
2022-10-14T21:19:35.008Z,21.03
2022-10-14T21:22:36.765Z,17.87
2022-10-14T21:25:38.469Z,19.63
2022-10-14T21:28:40.372Z,22.43
2022-10-14T21:31:42.069Z,23.73
2022-10-14T21:34:43.852Z,21.97
2022-10-14T21:37:45.689Z,24.50
2022-10-14T21:40:47.384Z,16.97
2022-10-14T21:43:49.059Z,22.17
2022-10-14T21:46:50.746Z,22.07
2022-10-14T21:49:52.392Z,23.80
2022-10-14T21:52:54.037Z,19.30
2022-10-14T21:55:55.671Z,22.43
2022-10-14T21:58:58.728Z,20.83
2022-10-14T22:02:00.372Z,18.57
2022-10-14T22:05:02.143Z,21.77
2022-10-14T22:08:04.284Z,20.63
2022-10-14T22:11:07.652Z,22.33
2022-10-14T22:14:14.839Z,21.47
2022-10-14T22:17:16.573Z,19.90
2022-10-14T22:20:18.743Z,20.73
2022-10-14T22:23:20.532Z,23.00
2022-10-14T22:26:24.585Z,23.13
2022-10-14T22:29:26.261Z,18.70
2022-10-14T22:32:28.037Z,20.30
2022-10-14T22:35:29.760Z,21.57
2022-10-14T22:38:31.487Z,20.30
2022-10-14T22:41:35.661Z,18.97
2022-10-14T22:44:37.729Z,19.77
2022-10-14T22:47:39.366Z,16.53
2022-10-14T22:50:41.052Z,18.07
2022-10-14T22:53:44.173Z,20.60
2022-10-14T22:56:45.890Z,21.47
2022-10-14T22:59:47.714Z,18.40
2022-10-14T23:02:49.520Z,18.23
2022-10-14T23:05:51.179Z,18.00
2022-10-14T23:08:54.288Z,20.30
2022-10-14T23:11:56.006Z,17.90
2022-10-14T23:14:57.671Z,19.90
2022-10-14T23:17:59.471Z,21.03
2022-10-14T23:21:09.329Z,21.57
2022-10-14T23:24:12.339Z,20.77
2022-10-14T23:27:13.961Z,19.67
2022-10-14T23:30:15.675Z,17.03
2022-10-14T23:33:17.586Z,16.53
2022-10-14T23:36:21.347Z,18.27
2022-10-14T23:39:23.075Z,19.20
2022-10-14T23:42:24.760Z,17.90
2022-10-14T23:45:26.516Z,17.43
2022-10-14T23:48:28.497Z,22.80
2022-10-14T23:51:31.010Z,26.00
2022-10-14T23:54:32.712Z,25.70
2022-10-14T23:57:34.409Z,18.80
